sensor_id;sensor_type;location;lat;lon;timestamp;P1;durP1;ratioP1;P2;durP2;ratioP2
6348;SDS011;3207;42.648;23.406;2024-03-02T00:01:35;34.70;;;21.90;;
6348;SDS011;3207;42.648;23.406;2024-03-02T00:04:25;36.70;;;22.73;;
6348;SDS011;3207;42.648;23.406;2024-03-02T00:06:54;31.45;;;21.52;;
6348;SDS011;3207;42.648;23.406;2024-03-02T00:09:23;30.60;;;19.85;;
6348;SDS011;3207;42.648;23.406;2024-03-02T00:12:01;31.00;;;21.20;;
6348;SDS011;3207;42.648;23.406;2024-03-02T00:14:36;32.57;;;20.13;;
6348;SDS011;3207;42.648;23.406;2024-03-02T00:17:17;33.73;;;21.37;;
6348;SDS011;3207;42.648;23.406;2024-03-02T00:20:00;28.52;;;19.15;;
6348;SDS011;3207;42.648;23.406;2024-03-02T00:22:35;28.30;;;18.00;;
6348;SDS011;3207;42.648;23.406;2024-03-02T00:25:12;34.70;;;19.83;;
6348;SDS011;3207;42.648;23.406;2024-03-02T00:27:52;30.93;;;19.70;;
6348;SDS011;3207;42.648;23.406;2024-03-02T00:30:38;33.67;;;19.03;;
6348;SDS011;3207;42.648;23.406;2024-03-02T00:33:21;31.30;;;20.70;;
6348;SDS011;3207;42.648;23.406;2024-03-02T00:35:52;30.53;;;19.23;;
6348;SDS011;3207;42.648;23.406;2024-03-02T00:38:25;28.50;;;19.37;;
6348;SDS011;3207;42.648;23.406;2024-03-02T00:41:02;33.10;;;19.27;;
6348;SDS011;3207;42.648;23.406;2024-03-02T00:43:54;30.20;;;19.67;;
6348;SDS011;3207;42.648;23.406;2024-03-02T00:46:28;31.67;;;19.73;;
6348;SDS011;3207;42.648;23.406;2024-03-02T00:49:03;32.13;;;18.03;;
6348;SDS011;3207;42.648;23.406;2024-03-02T00:51:34;26.40;;;18.70;;
6348;SDS011;3207;42.648;23.406;2024-03-02T00:54:03;25.83;;;17.93;;
6348;SDS011;3207;42.648;23.406;2024-03-02T00:56:36;26.10;;;16.30;;
6348;SDS011;3207;42.648;23.406;2024-03-02T00:59:10;21.53;;;16.30;;
6348;SDS011;3207;42.648;23.406;2024-03-02T01:01:40;24.23;;;15.90;;
6348;SDS011;3207;42.648;23.406;2024-03-02T01:04:15;26.73;;;16.60;;
6348;SDS011;3207;42.648;23.406;2024-03-02T01:06:45;26.07;;;16.33;;
6348;SDS011;3207;42.648;23.406;2024-03-02T01:09:16;24.60;;;15.57;;
6348;SDS011;3207;42.648;23.406;2024-03-02T01:11:49;26.90;;;16.47;;
6348;SDS011;3207;42.648;23.406;2024-03-02T01:14:19;26.47;;;17.63;;
6348;SDS011;3207;42.648;23.406;2024-03-02T01:16:48;31.03;;;20.10;;
6348;SDS011;3207;42.648;23.406;2024-03-02T01:19:22;37.93;;;23.87;;
6348;SDS011;3207;42.648;23.406;2024-03-02T01:21:52;34.57;;;23.53;;
6348;SDS011;3207;42.648;23.406;2024-03-02T01:24:27;36.57;;;25.77;;
6348;SDS011;3207;42.648;23.406;2024-03-02T01:27:03;39.17;;;25.53;;
6348;SDS011;3207;42.648;23.406;2024-03-02T01:29:36;34.93;;;25.93;;
6348;SDS011;3207;42.648;23.406;2024-03-02T01:32:04;38.37;;;27.17;;
6348;SDS011;3207;42.648;23.406;2024-03-02T01:34:35;44.43;;;28.03;;
6348;SDS011;3207;42.648;23.406;2024-03-02T01:37:14;43.73;;;26.80;;
6348;SDS011;3207;42.648;23.406;2024-03-02T01:39:48;39.50;;;25.17;;
6348;SDS011;3207;42.648;23.406;2024-03-02T01:42:19;36.70;;;25.37;;
6348;SDS011;3207;42.648;23.406;2024-03-02T01:45:00;39.17;;;26.10;;
6348;SDS011;3207;42.648;23.406;2024-03-02T01:47:32;37.93;;;24.20;;
6348;SDS011;3207;42.648;23.406;2024-03-02T01:50:01;34.70;;;21.50;;
6348;SDS011;3207;42.648;23.406;2024-03-02T01:52:40;35.27;;;22.67;;
6348;SDS011;3207;42.648;23.406;2024-03-02T01:55:14;33.40;;;22.33;;
6348;SDS011;3207;42.648;23.406;2024-03-02T01:57:48;32.87;;;19.87;;
6348;SDS011;3207;42.648;23.406;2024-03-02T02:00:24;26.40;;;19.37;;
6348;SDS011;3207;42.648;23.406;2024-03-02T02:02:55;28.00;;;20.33;;
6348;SDS011;3207;42.648;23.406;2024-03-02T02:05:28;31.40;;;21.03;;
6348;SDS011;3207;42.648;23.406;2024-03-02T02:07:57;35.17;;;23.20;;
6348;SDS011;3207;42.648;23.406;2024-03-02T02:10:33;35.93;;;23.80;;
6348;SDS011;3207;42.648;23.406;2024-03-02T02:13:00;37.00;;;23.67;;
6348;SDS011;3207;42.648;23.406;2024-03-02T02:15:32;31.47;;;21.67;;
6348;SDS011;3207;42.648;23.406;2024-03-02T02:18:02;35.33;;;23.37;;
6348;SDS011;3207;42.648;23.406;2024-03-02T02:20:38;33.13;;;22.20;;
6348;SDS011;3207;42.648;23.406;2024-03-02T02:23:15;33.57;;;22.20;;
6348;SDS011;3207;42.648;23.406;2024-03-02T02:25:50;35.70;;;21.30;;
6348;SDS011;3207;42.648;23.406;2024-03-02T02:28:23;31.70;;;20.80;;
6348;SDS011;3207;42.648;23.406;2024-03-02T02:30:56;33.57;;;21.50;;
6348;SDS011;3207;42.648;23.406;2024-03-02T02:33:30;35.30;;;21.77;;
6348;SDS011;3207;42.648;23.406;2024-03-02T02:36:04;37.03;;;23.77;;
6348;SDS011;3207;42.648;23.406;2024-03-02T02:38:38;36.40;;;22.67;;
6348;SDS011;3207;42.648;23.406;2024-03-02T02:41:12;41.43;;;25.17;;
6348;SDS011;3207;42.648;23.406;2024-03-02T02:43:41;38.10;;;23.70;;
6348;SDS011;3207;42.648;23.406;2024-03-02T02:46:10;38.57;;;25.67;;
6348;SDS011;3207;42.648;23.406;2024-03-02T02:48:39;37.53;;;25.47;;
6348;SDS011;3207;42.648;23.406;2024-03-02T02:51:11;36.67;;;25.53;;
6348;SDS011;3207;42.648;23.406;2024-03-02T02:53:51;40.93;;;26.73;;
6348;SDS011;3207;42.648;23.406;2024-03-02T02:56:21;41.03;;;26.17;;
6348;SDS011;3207;42.648;23.406;2024-03-02T02:58:52;37.67;;;24.63;;
6348;SDS011;3207;42.648;23.406;2024-03-02T03:01:23;43.40;;;27.90;;
6348;SDS011;3207;42.648;23.406;2024-03-02T03:03:57;49.67;;;29.50;;
6348;SDS011;3207;42.648;23.406;2024-03-02T03:06:27;40.53;;;28.20;;
6348;SDS011;3207;42.648;23.406;2024-03-02T03:09:04;48.70;;;29.33;;
6348;SDS011;3207;42.648;23.406;2024-03-02T03:11:36;46.90;;;27.93;;
6348;SDS011;3207;42.648;23.406;2024-03-02T03:14:05;37.20;;;24.70;;
6348;SDS011;3207;42.648;23.406;2024-03-02T03:16:34;41.53;;;27.50;;
6348;SDS011;3207;42.648;23.406;2024-03-02T03:19:08;40.40;;;26.13;;
6348;SDS011;3207;42.648;23.406;2024-03-02T03:21:37;44.00;;;27.00;;
6348;SDS011;3207;42.648;23.406;2024-03-02T03:24:08;44.23;;;29.43;;
6348;SDS011;3207;42.648;23.406;2024-03-02T03:26:39;42.97;;;27.27;;
6348;SDS011;3207;42.648;23.406;2024-03-02T03:29:09;36.93;;;25.57;;
6348;SDS011;3207;42.648;23.406;2024-03-02T03:31:37;41.43;;;25.97;;
6348;SDS011;3207;42.648;23.406;2024-03-02T03:34:08;42.10;;;26.73;;
6348;SDS011;3207;42.648;23.406;2024-03-02T03:36:42;39.23;;;25.03;;
6348;SDS011;3207;42.648;23.406;2024-03-02T03:39:14;38.17;;;24.47;;
6348;SDS011;3207;42.648;23.406;2024-03-02T03:41:44;33.60;;;24.17;;
6348;SDS011;3207;42.648;23.406;2024-03-02T03:44:13;34.00;;;23.90;;
6348;SDS011;3207;42.648;23.406;2024-03-02T03:46:47;35.47;;;24.77;;
6348;SDS011;3207;42.648;23.406;2024-03-02T03:49:22;36.33;;;23.87;;
6348;SDS011;3207;42.648;23.406;2024-03-02T03:51:49;37.07;;;24.53;;
6348;SDS011;3207;42.648;23.406;2024-03-02T03:54:18;32.03;;;24.70;;
6348;SDS011;3207;42.648;23.406;2024-03-02T03:56:54;37.87;;;24.30;;
6348;SDS011;3207;42.648;23.406;2024-03-02T03:59:27;35.67;;;24.70;;
6348;SDS011;3207;42.648;23.406;2024-03-02T04:01:56;37.43;;;23.30;;
6348;SDS011;3207;42.648;23.406;2024-03-02T04:04:28;34.83;;;24.13;;
6348;SDS011;3207;42.648;23.406;2024-03-02T04:07:01;34.10;;;24.43;;
6348;SDS011;3207;42.648;23.406;2024-03-02T04:09:39;33.97;;;23.93;;
6348;SDS011;3207;42.648;23.406;2024-03-02T04:12:18;36.40;;;23.57;;
6348;SDS011;3207;42.648;23.406;2024-03-02T04:14:52;41.97;;;25.37;;
6348;SDS011;3207;42.648;23.406;2024-03-02T04:17:24;38.17;;;25.27;;
6348;SDS011;3207;42.648;23.406;2024-03-02T04:19:54;33.43;;;24.17;;
6348;SDS011;3207;42.648;23.406;2024-03-02T04:22:30;34.13;;;24.67;;
6348;SDS011;3207;42.648;23.406;2024-03-02T04:25:08;32.97;;;24.10;;
6348;SDS011;3207;42.648;23.406;2024-03-02T04:27:41;29.93;;;22.87;;
6348;SDS011;3207;42.648;23.406;2024-03-02T04:30:10;34.13;;;24.17;;
6348;SDS011;3207;42.648;23.406;2024-03-02T04:32:40;34.57;;;24.03;;
6348;SDS011;3207;42.648;23.406;2024-03-02T04:35:11;38.50;;;26.10;;
6348;SDS011;3207;42.648;23.406;2024-03-02T04:37:43;39.37;;;26.97;;
6348;SDS011;3207;42.648;23.406;2024-03-02T04:40:15;39.07;;;25.57;;
6348;SDS011;3207;42.648;23.406;2024-03-02T04:42:50;40.50;;;26.13;;
6348;SDS011;3207;42.648;23.406;2024-03-02T04:45:20;36.40;;;23.73;;
6348;SDS011;3207;42.648;23.406;2024-03-02T04:47:49;37.93;;;25.73;;
6348;SDS011;3207;42.648;23.406;2024-03-02T04:50:16;40.27;;;26.00;;
6348;SDS011;3207;42.648;23.406;2024-03-02T04:52:45;35.97;;;25.23;;
6348;SDS011;3207;42.648;23.406;2024-03-02T04:55:18;38.57;;;25.10;;
6348;SDS011;3207;42.648;23.406;2024-03-02T04:58:11;40.03;;;24.17;;
6348;SDS011;3207;42.648;23.406;2024-03-02T05:00:44;34.30;;;24.23;;
6348;SDS011;3207;42.648;23.406;2024-03-02T05:03:16;35.73;;;23.63;;
6348;SDS011;3207;42.648;23.406;2024-03-02T05:05:44;35.83;;;25.13;;
6348;SDS011;3207;42.648;23.406;2024-03-02T05:08:19;34.67;;;23.07;;
6348;SDS011;3207;42.648;23.406;2024-03-02T05:10:53;33.20;;;24.23;;
6348;SDS011;3207;42.648;23.406;2024-03-02T05:13:45;35.50;;;25.17;;
6348;SDS011;3207;42.648;23.406;2024-03-02T05:16:17;36.87;;;25.43;;
6348;SDS011;3207;42.648;23.406;2024-03-02T05:18:59;38.50;;;27.00;;
6348;SDS011;3207;42.648;23.406;2024-03-02T05:21:30;40.73;;;25.10;;
6348;SDS011;3207;42.648;23.406;2024-03-02T05:24:07;42.73;;;27.47;;
6348;SDS011;3207;42.648;23.406;2024-03-02T05:26:40;40.43;;;27.27;;
6348;SDS011;3207;42.648;23.406;2024-03-02T05:29:15;41.17;;;27.53;;
6348;SDS011;3207;42.648;23.406;2024-03-02T05:31:42;45.97;;;27.20;;
6348;SDS011;3207;42.648;23.406;2024-03-02T05:34:12;43.07;;;26.20;;
6348;SDS011;3207;42.648;23.406;2024-03-02T05:36:45;41.63;;;26.03;;
6348;SDS011;3207;42.648;23.406;2024-03-02T05:39:18;44.27;;;27.20;;
6348;SDS011;3207;42.648;23.406;2024-03-02T05:41:54;38.57;;;25.80;;
6348;SDS011;3207;42.648;23.406;2024-03-02T05:44:31;38.60;;;25.40;;
6348;SDS011;3207;42.648;23.406;2024-03-02T05:47:03;38.27;;;26.63;;
6348;SDS011;3207;42.648;23.406;2024-03-02T05:49:38;41.27;;;25.37;;
6348;SDS011;3207;42.648;23.406;2024-03-02T05:52:13;42.37;;;25.57;;
6348;SDS011;3207;42.648;23.406;2024-03-02T05:54:43;39.93;;;26.70;;
6348;SDS011;3207;42.648;23.406;2024-03-02T05:57:17;40.30;;;27.33;;
6348;SDS011;3207;42.648;23.406;2024-03-02T06:00:04;37.70;;;25.40;;
6348;SDS011;3207;42.648;23.406;2024-03-02T06:02:39;36.87;;;25.30;;
6348;SDS011;3207;42.648;23.406;2024-03-02T06:05:10;42.17;;;27.63;;
6348;SDS011;3207;42.648;23.406;2024-03-02T06:07:44;42.90;;;27.57;;
6348;SDS011;3207;42.648;23.406;2024-03-02T06:10:15;40.87;;;27.63;;
6348;SDS011;3207;42.648;23.406;2024-03-02T06:12:45;44.77;;;25.77;;
6348;SDS011;3207;42.648;23.406;2024-03-02T06:15:17;42.20;;;27.70;;
6348;SDS011;3207;42.648;23.406;2024-03-02T06:17:48;45.63;;;27.23;;
6348;SDS011;3207;42.648;23.406;2024-03-02T06:20:17;44.67;;;27.07;;
6348;SDS011;3207;42.648;23.406;2024-03-02T06:22:44;41.07;;;27.20;;
6348;SDS011;3207;42.648;23.406;2024-03-02T06:25:12;40.87;;;24.63;;
6348;SDS011;3207;42.648;23.406;2024-03-02T06:27:42;37.83;;;25.00;;
6348;SDS011;3207;42.648;23.406;2024-03-02T06:30:21;33.10;;;24.33;;
6348;SDS011;3207;42.648;23.406;2024-03-02T06:32:53;33.90;;;24.43;;
6348;SDS011;3207;42.648;23.406;2024-03-02T06:35:22;31.80;;;23.47;;
6348;SDS011;3207;42.648;23.406;2024-03-02T06:37:55;36.42;;;25.90;;
6348;SDS011;3207;42.648;23.406;2024-03-02T06:40:28;34.20;;;25.23;;
6348;SDS011;3207;42.648;23.406;2024-03-02T06:42:57;37.92;;;25.35;;
6348;SDS011;3207;42.648;23.406;2024-03-02T06:45:30;33.53;;;24.23;;
6348;SDS011;3207;42.648;23.406;2024-03-02T06:47:59;36.55;;;24.73;;
6348;SDS011;3207;42.648;23.406;2024-03-02T06:50:26;38.35;;;27.30;;
6348;SDS011;3207;42.648;23.406;2024-03-02T06:52:54;42.30;;;26.83;;
6348;SDS011;3207;42.648;23.406;2024-03-02T06:55:22;45.87;;;27.10;;
6348;SDS011;3207;42.648;23.406;2024-03-02T06:58:02;43.43;;;26.80;;
6348;SDS011;3207;42.648;23.406;2024-03-02T07:00:32;45.93;;;27.70;;
6348;SDS011;3207;42.648;23.406;2024-03-02T07:02:59;43.47;;;26.23;;
6348;SDS011;3207;42.648;23.406;2024-03-02T07:05:28;40.10;;;26.93;;
6348;SDS011;3207;42.648;23.406;2024-03-02T07:07:55;43.60;;;26.63;;
6348;SDS011;3207;42.648;23.406;2024-03-02T07:10:23;36.80;;;26.17;;
6348;SDS011;3207;42.648;23.406;2024-03-02T07:12:50;41.73;;;23.90;;
6348;SDS011;3207;42.648;23.406;2024-03-02T07:15:19;42.57;;;26.27;;
6348;SDS011;3207;42.648;23.406;2024-03-02T07:18:11;37.67;;;24.87;;
6348;SDS011;3207;42.648;23.406;2024-03-02T07:20:39;40.57;;;25.20;;
6348;SDS011;3207;42.648;23.406;2024-03-02T07:23:09;44.77;;;28.67;;
6348;SDS011;3207;42.648;23.406;2024-03-02T07:25:37;40.07;;;25.83;;
6348;SDS011;3207;42.648;23.406;2024-03-02T07:28:06;39.83;;;24.77;;
6348;SDS011;3207;42.648;23.406;2024-03-02T07:30:34;36.77;;;23.67;;
6348;SDS011;3207;42.648;23.406;2024-03-02T07:33:07;35.10;;;24.33;;
6348;SDS011;3207;42.648;23.406;2024-03-02T07:35:37;37.33;;;23.63;;
6348;SDS011;3207;42.648;23.406;2024-03-02T07:38:10;38.03;;;24.60;;
6348;SDS011;3207;42.648;23.406;2024-03-02T07:40:38;34.78;;;24.60;;
6348;SDS011;3207;42.648;23.406;2024-03-02T07:43:06;35.97;;;23.77;;
6348;SDS011;3207;42.648;23.406;2024-03-02T07:45:34;34.28;;;22.33;;
6348;SDS011;3207;42.648;23.406;2024-03-02T07:48:04;35.83;;;23.98;;
6348;SDS011;3207;42.648;23.406;2024-03-02T07:50:31;35.53;;;23.70;;
6348;SDS011;3207;42.648;23.406;2024-03-02T07:53:02;32.88;;;22.75;;
6348;SDS011;3207;42.648;23.406;2024-03-02T07:55:29;34.10;;;21.65;;
6348;SDS011;3207;42.648;23.406;2024-03-02T07:57:57;34.63;;;25.33;;
6348;SDS011;3207;42.648;23.406;2024-03-02T08:00:26;30.65;;;22.25;;
6348;SDS011;3207;42.648;23.406;2024-03-02T08:02:54;37.20;;;22.98;;
6348;SDS011;3207;42.648;23.406;2024-03-02T08:05:25;35.53;;;23.88;;
6348;SDS011;3207;42.648;23.406;2024-03-02T08:07:53;33.67;;;23.60;;
6348;SDS011;3207;42.648;23.406;2024-03-02T08:10:23;32.53;;;22.90;;
6348;SDS011;3207;42.648;23.406;2024-03-02T08:12:50;37.20;;;23.05;;
6348;SDS011;3207;42.648;23.406;2024-03-02T08:15:17;32.45;;;22.95;;
6348;SDS011;3207;42.648;23.406;2024-03-02T08:17:44;36.55;;;24.65;;
6348;SDS011;3207;42.648;23.406;2024-03-02T08:20:14;33.92;;;22.23;;
6348;SDS011;3207;42.648;23.406;2024-03-02T08:22:43;34.47;;;24.63;;
6348;SDS011;3207;42.648;23.406;2024-03-02T08:25:12;37.72;;;26.23;;
6348;SDS011;3207;42.648;23.406;2024-03-02T08:27:41;41.78;;;28.00;;
6348;SDS011;3207;42.648;23.406;2024-03-02T08:30:08;43.42;;;28.95;;
6348;SDS011;3207;42.648;23.406;2024-03-02T08:32:36;43.30;;;27.92;;
6348;SDS011;3207;42.648;23.406;2024-03-02T08:35:06;42.13;;;28.70;;
6348;SDS011;3207;42.648;23.406;2024-03-02T08:37:33;41.80;;;27.77;;
6348;SDS011;3207;42.648;23.406;2024-03-02T08:40:00;37.85;;;28.13;;
6348;SDS011;3207;42.648;23.406;2024-03-02T08:42:29;45.85;;;28.65;;
6348;SDS011;3207;42.648;23.406;2024-03-02T08:44:58;42.47;;;29.33;;
6348;SDS011;3207;42.648;23.406;2024-03-02T08:47:30;39.75;;;27.27;;
6348;SDS011;3207;42.648;23.406;2024-03-02T08:49:58;41.13;;;30.15;;
6348;SDS011;3207;42.648;23.406;2024-03-02T08:52:26;45.17;;;30.30;;
6348;SDS011;3207;42.648;23.406;2024-03-02T08:54:54;46.15;;;30.80;;
6348;SDS011;3207;42.648;23.406;2024-03-02T08:57:21;45.78;;;29.23;;
6348;SDS011;3207;42.648;23.406;2024-03-02T08:59:49;39.58;;;28.48;;
6348;SDS011;3207;42.648;23.406;2024-03-02T09:02:18;39.63;;;27.13;;
6348;SDS011;3207;42.648;23.406;2024-03-02T09:04:45;40.92;;;29.10;;
6348;SDS011;3207;42.648;23.406;2024-03-02T09:07:13;42.72;;;28.65;;
6348;SDS011;3207;42.648;23.406;2024-03-02T09:09:40;35.58;;;28.65;;
6348;SDS011;3207;42.648;23.406;2024-03-02T09:12:07;36.42;;;28.52;;
6348;SDS011;3207;42.648;23.406;2024-03-02T09:14:36;35.25;;;25.55;;
6348;SDS011;3207;42.648;23.406;2024-03-02T09:17:05;40.97;;;27.40;;
6348;SDS011;3207;42.648;23.406;2024-03-02T09:19:35;38.72;;;28.55;;
6348;SDS011;3207;42.648;23.406;2024-03-02T09:22:02;36.67;;;27.38;;
6348;SDS011;3207;42.648;23.406;2024-03-02T09:24:30;35.83;;;27.75;;
6348;SDS011;3207;42.648;23.406;2024-03-02T09:26:58;31.98;;;26.02;;
6348;SDS011;3207;42.648;23.406;2024-03-02T09:29:25;35.53;;;27.83;;
6348;SDS011;3207;42.648;23.406;2024-03-02T09:31:54;34.33;;;27.73;;
6348;SDS011;3207;42.648;23.406;2024-03-02T09:34:22;35.30;;;26.42;;
6348;SDS011;3207;42.648;23.406;2024-03-02T09:36:52;34.28;;;26.83;;
6348;SDS011;3207;42.648;23.406;2024-03-02T09:39:20;32.63;;;26.00;;
6348;SDS011;3207;42.648;23.406;2024-03-02T09:41:47;33.28;;;25.98;;
6348;SDS011;3207;42.648;23.406;2024-03-02T09:44:15;30.95;;;27.23;;
6348;SDS011;3207;42.648;23.406;2024-03-02T09:46:42;31.80;;;27.60;;
6348;SDS011;3207;42.648;23.406;2024-03-02T09:49:10;31.63;;;27.98;;
6348;SDS011;3207;42.648;23.406;2024-03-02T09:51:37;33.50;;;29.88;;
6348;SDS011;3207;42.648;23.406;2024-03-02T09:54:12;33.33;;;29.73;;
6348;SDS011;3207;42.648;23.406;2024-03-02T09:56:39;34.15;;;30.65;;
6348;SDS011;3207;42.648;23.406;2024-03-02T09:59:07;34.97;;;31.40;;
6348;SDS011;3207;42.648;23.406;2024-03-02T10:01:35;35.13;;;31.33;;
6348;SDS011;3207;42.648;23.406;2024-03-02T10:04:05;37.85;;;33.75;;
6348;SDS011;3207;42.648;23.406;2024-03-02T10:06:33;35.70;;;32.15;;
6348;SDS011;3207;42.648;23.406;2024-03-02T10:09:00;36.30;;;32.83;;
6348;SDS011;3207;42.648;23.406;2024-03-02T10:11:30;38.22;;;34.35;;
6348;SDS011;3207;42.648;23.406;2024-03-02T10:14:05;36.80;;;33.20;;
6348;SDS011;3207;42.648;23.406;2024-03-02T10:16:34;36.53;;;33.05;;
6348;SDS011;3207;42.648;23.406;2024-03-02T10:19:17;36.33;;;33.00;;
6348;SDS011;3207;42.648;23.406;2024-03-02T10:21:48;36.67;;;33.03;;
6348;SDS011;3207;42.648;23.406;2024-03-02T10:24:18;35.33;;;32.13;;
6348;SDS011;3207;42.648;23.406;2024-03-02T10:26:47;38.00;;;34.22;;
6348;SDS011;3207;42.648;23.406;2024-03-02T10:29:15;37.08;;;33.70;;
6348;SDS011;3207;42.648;23.406;2024-03-02T10:31:43;37.65;;;34.17;;
6348;SDS011;3207;42.648;23.406;2024-03-02T10:34:12;37.55;;;33.72;;
6348;SDS011;3207;42.648;23.406;2024-03-02T10:36:41;37.30;;;34.05;;
6348;SDS011;3207;42.648;23.406;2024-03-02T10:39:10;38.70;;;35.28;;
6348;SDS011;3207;42.648;23.406;2024-03-02T10:41:39;38.72;;;35.25;;
6348;SDS011;3207;42.648;23.406;2024-03-02T10:44:08;36.58;;;33.05;;
6348;SDS011;3207;42.648;23.406;2024-03-02T10:46:36;34.25;;;31.30;;
6348;SDS011;3207;42.648;23.406;2024-03-02T10:49:05;37.33;;;33.35;;
6348;SDS011;3207;42.648;23.406;2024-03-02T10:51:32;35.80;;;32.55;;
6348;SDS011;3207;42.648;23.406;2024-03-02T10:54:02;33.40;;;30.50;;
6348;SDS011;3207;42.648;23.406;2024-03-02T10:56:30;35.80;;;32.67;;
6348;SDS011;3207;42.648;23.406;2024-03-02T10:59:03;33.53;;;30.73;;
6348;SDS011;3207;42.648;23.406;2024-03-02T11:01:44;36.65;;;33.45;;
6348;SDS011;3207;42.648;23.406;2024-03-02T11:04:15;35.55;;;32.55;;
6348;SDS011;3207;42.648;23.406;2024-03-02T11:06:43;34.65;;;31.27;;
6348;SDS011;3207;42.648;23.406;2024-03-02T11:09:15;36.00;;;32.70;;
6348;SDS011;3207;42.648;23.406;2024-03-02T11:11:46;33.60;;;30.17;;
6348;SDS011;3207;42.648;23.406;2024-03-02T11:14:21;28.63;;;25.95;;
6348;SDS011;3207;42.648;23.406;2024-03-02T11:16:52;30.83;;;28.10;;
6348;SDS011;3207;42.648;23.406;2024-03-02T11:19:19;31.90;;;29.05;;
6348;SDS011;3207;42.648;23.406;2024-03-02T11:21:47;33.10;;;30.08;;
6348;SDS011;3207;42.648;23.406;2024-03-02T11:24:33;28.20;;;25.75;;
6348;SDS011;3207;42.648;23.406;2024-03-02T11:27:00;25.38;;;23.17;;
6348;SDS011;3207;42.648;23.406;2024-03-02T11:29:45;25.88;;;23.52;;
6348;SDS011;3207;42.648;23.406;2024-03-02T11:32:20;23.95;;;21.85;;
6348;SDS011;3207;42.648;23.406;2024-03-02T11:34:49;23.83;;;21.55;;
6348;SDS011;3207;42.648;23.406;2024-03-02T11:37:20;22.85;;;20.75;;
6348;SDS011;3207;42.648;23.406;2024-03-02T11:39:48;23.73;;;21.83;;
6348;SDS011;3207;42.648;23.406;2024-03-02T11:42:16;24.17;;;22.10;;
6348;SDS011;3207;42.648;23.406;2024-03-02T11:44:45;23.45;;;21.55;;
6348;SDS011;3207;42.648;23.406;2024-03-02T11:47:20;24.73;;;22.48;;
6348;SDS011;3207;42.648;23.406;2024-03-02T11:49:48;25.58;;;23.38;;
6348;SDS011;3207;42.648;23.406;2024-03-02T11:52:16;26.98;;;24.58;;
6348;SDS011;3207;42.648;23.406;2024-03-02T11:54:45;25.50;;;23.10;;
6348;SDS011;3207;42.648;23.406;2024-03-02T11:57:14;26.67;;;24.25;;
6348;SDS011;3207;42.648;23.406;2024-03-02T11:59:42;25.33;;;22.85;;
6348;SDS011;3207;42.648;23.406;2024-03-02T12:02:14;27.42;;;24.73;;
6348;SDS011;3207;42.648;23.406;2024-03-02T12:04:44;23.83;;;21.63;;
6348;SDS011;3207;42.648;23.406;2024-03-02T12:07:13;26.70;;;24.13;;
6348;SDS011;3207;42.648;23.406;2024-03-02T12:09:46;25.67;;;23.20;;
6348;SDS011;3207;42.648;23.406;2024-03-02T12:12:13;27.88;;;25.08;;
6348;SDS011;3207;42.648;23.406;2024-03-02T12:14:50;25.33;;;23.02;;
6348;SDS011;3207;42.648;23.406;2024-03-02T12:17:17;26.40;;;23.70;;
6348;SDS011;3207;42.648;23.406;2024-03-02T12:19:45;21.55;;;19.58;;
6348;SDS011;3207;42.648;23.406;2024-03-02T12:22:13;21.92;;;19.45;;
6348;SDS011;3207;42.648;23.406;2024-03-02T12:24:41;18.73;;;16.88;;
6348;SDS011;3207;42.648;23.406;2024-03-02T12:27:10;20.20;;;18.10;;
6348;SDS011;3207;42.648;23.406;2024-03-02T12:29:38;20.02;;;18.02;;
6348;SDS011;3207;42.648;23.406;2024-03-02T12:32:06;21.17;;;19.10;;
6348;SDS011;3207;42.648;23.406;2024-03-02T12:34:34;24.05;;;21.45;;
6348;SDS011;3207;42.648;23.406;2024-03-02T12:37:03;21.45;;;19.27;;
6348;SDS011;3207;42.648;23.406;2024-03-02T12:39:37;21.20;;;19.15;;
6348;SDS011;3207;42.648;23.406;2024-03-02T12:42:04;21.35;;;19.10;;
6348;SDS011;3207;42.648;23.406;2024-03-02T12:44:32;20.80;;;18.60;;
6348;SDS011;3207;42.648;23.406;2024-03-02T12:46:59;20.83;;;18.50;;
6348;SDS011;3207;42.648;23.406;2024-03-02T12:49:26;20.48;;;17.35;;
6348;SDS011;3207;42.648;23.406;2024-03-02T12:51:53;23.50;;;19.35;;
6348;SDS011;3207;42.648;23.406;2024-03-02T12:54:24;21.05;;;15.65;;
6348;SDS011;3207;42.648;23.406;2024-03-02T12:56:52;11.77;;;9.63;;
6348;SDS011;3207;42.648;23.406;2024-03-02T12:59:19;11.77;;;10.57;;
6348;SDS011;3207;42.648;23.406;2024-03-02T13:01:51;14.23;;;11.55;;
6348;SDS011;3207;42.648;23.406;2024-03-02T13:04:21;13.50;;;11.63;;
6348;SDS011;3207;42.648;23.406;2024-03-02T13:06:49;13.15;;;11.85;;
6348;SDS011;3207;42.648;23.406;2024-03-02T13:09:18;13.98;;;11.27;;
6348;SDS011;3207;42.648;23.406;2024-03-02T13:11:48;14.63;;;12.18;;
6348;SDS011;3207;42.648;23.406;2024-03-02T13:14:15;16.52;;;12.32;;
6348;SDS011;3207;42.648;23.406;2024-03-02T13:16:42;12.60;;;11.25;;
6348;SDS011;3207;42.648;23.406;2024-03-02T13:19:12;13.68;;;12.23;;
6348;SDS011;3207;42.648;23.406;2024-03-02T13:21:39;17.60;;;14.77;;
6348;SDS011;3207;42.648;23.406;2024-03-02T13:24:07;17.70;;;14.20;;
6348;SDS011;3207;42.648;23.406;2024-03-02T13:26:34;14.40;;;12.82;;
6348;SDS011;3207;42.648;23.406;2024-03-02T13:29:02;17.35;;;14.20;;
6348;SDS011;3207;42.648;23.406;2024-03-02T13:31:29;18.65;;;14.82;;
6348;SDS011;3207;42.648;23.406;2024-03-02T13:33:57;18.38;;;14.98;;
6348;SDS011;3207;42.648;23.406;2024-03-02T13:36:23;18.00;;;12.90;;
6348;SDS011;3207;42.648;23.406;2024-03-02T13:38:51;24.35;;;19.15;;
6348;SDS011;3207;42.648;23.406;2024-03-02T13:41:18;22.88;;;19.17;;
6348;SDS011;3207;42.648;23.406;2024-03-02T13:43:46;19.80;;;17.38;;
6348;SDS011;3207;42.648;23.406;2024-03-02T13:46:14;11.75;;;10.48;;
6348;SDS011;3207;42.648;23.406;2024-03-02T13:48:42;22.33;;;19.77;;
6348;SDS011;3207;42.648;23.406;2024-03-02T13:51:09;16.27;;;14.52;;
6348;SDS011;3207;42.648;23.406;2024-03-02T13:53:36;18.30;;;13.63;;
6348;SDS011;3207;42.648;23.406;2024-03-02T13:56:03;17.38;;;12.32;;
6348;SDS011;3207;42.648;23.406;2024-03-02T13:58:30;16.45;;;11.70;;
6348;SDS011;3207;42.648;23.406;2024-03-02T14:00:58;12.10;;;10.48;;
6348;SDS011;3207;42.648;23.406;2024-03-02T14:03:27;11.93;;;9.75;;
6348;SDS011;3207;42.648;23.406;2024-03-02T14:05:55;21.50;;;16.45;;
6348;SDS011;3207;42.648;23.406;2024-03-02T14:08:23;22.85;;;18.38;;
6348;SDS011;3207;42.648;23.406;2024-03-02T14:10:51;21.15;;;18.50;;
6348;SDS011;3207;42.648;23.406;2024-03-02T14:13:19;17.42;;;13.15;;
6348;SDS011;3207;42.648;23.406;2024-03-02T14:15:46;18.10;;;15.93;;
6348;SDS011;3207;42.648;23.406;2024-03-02T14:18:14;18.63;;;16.25;;
6348;SDS011;3207;42.648;23.406;2024-03-02T14:20:42;15.52;;;13.77;;
6348;SDS011;3207;42.648;23.406;2024-03-02T14:23:14;16.75;;;12.73;;
6348;SDS011;3207;42.648;23.406;2024-03-02T14:25:41;18.17;;;15.77;;
6348;SDS011;3207;42.648;23.406;2024-03-02T14:28:08;23.50;;;17.45;;
6348;SDS011;3207;42.648;23.406;2024-03-02T14:30:35;34.97;;;19.25;;
6348;SDS011;3207;42.648;23.406;2024-03-02T14:33:02;23.98;;;17.85;;
6348;SDS011;3207;42.648;23.406;2024-03-02T14:35:29;21.67;;;19.13;;
6348;SDS011;3207;42.648;23.406;2024-03-02T14:37:58;28.90;;;18.85;;
6348;SDS011;3207;42.648;23.406;2024-03-02T14:40:25;23.70;;;18.52;;
6348;SDS011;3207;42.648;23.406;2024-03-02T14:42:54;24.23;;;18.35;;
6348;SDS011;3207;42.648;23.406;2024-03-02T14:45:24;23.05;;;17.75;;
6348;SDS011;3207;42.648;23.406;2024-03-02T14:47:51;22.55;;;18.13;;
6348;SDS011;3207;42.648;23.406;2024-03-02T14:50:19;26.63;;;19.10;;
6348;SDS011;3207;42.648;23.406;2024-03-02T14:52:46;22.23;;;18.75;;
6348;SDS011;3207;42.648;23.406;2024-03-02T14:55:15;24.13;;;18.20;;
6348;SDS011;3207;42.648;23.406;2024-03-02T14:57:42;21.98;;;16.75;;